Range, Wisconsin
Current Conditions -  °F | °C
As of 3:35 AM on Thursday 23 Oct 2014 (Local Time) from KOEO Reporting Station
Moderate Rain Moderate Rain  
Wind Chill: 52°   Ceiling: 2000
Heat Index: 52°   Visibility: 10mi
Dew Point: 43°   Wind: 8mph
Humidity: 71%   Direction: 160°SSE
Pressure: 30.03"   Gusts: NA
Location:  45.3559°N, 92.3527°W
Report Text: KOEO 230835Z AUTO 16007KT 10SM RA OVC020 11/06 A3003 RMK AO2 T01120062
Loading
Personal Weather Stations






























Interactive Weather Map
Tropical Storm Tracking
New forecast layout! Learn more

10-Day Weather Forecast

Advertisements
Track Severe Weather on mobile